sensor_id;sensor_type;location;lat;lon;timestamp;temperature;humidity
6174;DHT22;3120;48.796;9.796;2023-02-11T00:01:29;-2.50;99.90
6174;DHT22;3120;48.796;9.796;2023-02-11T00:03:56;-2.50;99.90
6174;DHT22;3120;48.796;9.796;2023-02-11T00:06:23;-2.60;99.90
6174;DHT22;3120;48.796;9.796;2023-02-11T00:08:50;-2.60;99.90
6174;DHT22;3120;48.796;9.796;2023-02-11T00:11:17;-2.60;99.90
6174;DHT22;3120;48.796;9.796;2023-02-11T00:13:44;-2.70;99.90
6174;DHT22;3120;48.796;9.796;2023-02-11T00:16:12;-2.80;99.90
6174;DHT22;3120;48.796;9.796;2023-02-11T00:18:38;-2.80;99.90
6174;DHT22;3120;48.796;9.796;2023-02-11T00:21:21;-2.90;99.90
6174;DHT22;3120;48.796;9.796;2023-02-11T00:24:03;-2.80;99.90
6174;DHT22;3120;48.796;9.796;2023-02-11T00:26:32;-3.10;99.90
6174;DHT22;3120;48.796;9.796;2023-02-11T00:29:10;-3.00;99.90
6174;DHT22;3120;48.796;9.796;2023-02-11T00:31:35;-3.00;99.90
6174;DHT22;3120;48.796;9.796;2023-02-11T00:34:01;-3.00;99.90
6174;DHT22;3120;48.796;9.796;2023-02-11T00:36:28;-3.00;99.90
6174;DHT22;3120;48.796;9.796;2023-02-11T00:38:55;-3.10;99.90
6174;DHT22;3120;48.796;9.796;2023-02-11T00:41:21;-3.10;99.90
6174;DHT22;3120;48.796;9.796;2023-02-11T00:43:47;-3.20;99.90
6174;DHT22;3120;48.796;9.796;2023-02-11T00:46:12;-3.20;99.90
6174;DHT22;3120;48.796;9.796;2023-02-11T00:48:38;-3.20;99.90
6174;DHT22;3120;48.796;9.796;2023-02-11T00:51:04;-3.10;99.90
6174;DHT22;3120;48.796;9.796;2023-02-11T00:53:30;-3.10;99.90
6174;DHT22;3120;48.796;9.796;2023-02-11T00:55:56;-3.10;99.90
6174;DHT22;3120;48.796;9.796;2023-02-11T00:58:22;-3.20;99.90
6174;DHT22;3120;48.796;9.796;2023-02-11T01:00:48;-3.20;99.90
6174;DHT22;3120;48.796;9.796;2023-02-11T01:03:13;-3.30;99.90
6174;DHT22;3120;48.796;9.796;2023-02-11T01:05:39;-3.30;99.90
6174;DHT22;3120;48.796;9.796;2023-02-11T01:08:04;-3.30;99.90
6174;DHT22;3120;48.796;9.796;2023-02-11T01:13:30;-3.30;99.90
6174;DHT22;3120;48.796;9.796;2023-02-11T01:15:56;-3.30;99.90
6174;DHT22;3120;48.796;9.796;2023-02-11T01:18:23;-3.40;99.90
6174;DHT22;3120;48.796;9.796;2023-02-11T01:20:55;-3.30;99.90
6174;DHT22;3120;48.796;9.796;2023-02-11T01:23:21;-3.30;99.90
6174;DHT22;3120;48.796;9.796;2023-02-11T01:25:47;-3.30;99.90
6174;DHT22;3120;48.796;9.796;2023-02-11T01:28:31;-3.30;99.90
6174;DHT22;3120;48.796;9.796;2023-02-11T01:30:57;-3.20;99.90
6174;DHT22;3120;48.796;9.796;2023-02-11T01:33:23;-3.20;99.90
6174;DHT22;3120;48.796;9.796;2023-02-11T01:35:49;-3.30;99.90
6174;DHT22;3120;48.796;9.796;2023-02-11T01:38:17;-3.30;99.90
6174;DHT22;3120;48.796;9.796;2023-02-11T01:40:51;-3.30;99.90
6174;DHT22;3120;48.796;9.796;2023-02-11T01:43:18;-3.40;99.90
6174;DHT22;3120;48.796;9.796;2023-02-11T01:48:13;-3.40;99.90
6174;DHT22;3120;48.796;9.796;2023-02-11T01:50:40;-3.40;99.90
6174;DHT22;3120;48.796;9.796;2023-02-11T01:53:14;-3.40;99.90
6174;DHT22;3120;48.796;9.796;2023-02-11T01:56:04;-3.40;99.90
6174;DHT22;3120;48.796;9.796;2023-02-11T01:58:50;-3.40;99.90
6174;DHT22;3120;48.796;9.796;2023-02-11T02:01:21;-3.40;99.90
6174;DHT22;3120;48.796;9.796;2023-02-11T02:03:50;-3.30;99.90
6174;DHT22;3120;48.796;9.796;2023-02-11T02:06:27;-3.20;99.90
6174;DHT22;3120;48.796;9.796;2023-02-11T02:09:04;-3.30;99.90
6174;DHT22;3120;48.796;9.796;2023-02-11T02:11:31;-3.30;99.90
6174;DHT22;3120;48.796;9.796;2023-02-11T02:13:56;-3.30;99.90
6174;DHT22;3120;48.796;9.796;2023-02-11T02:16:29;-3.30;99.90
6174;DHT22;3120;48.796;9.796;2023-02-11T02:32:54;-3.10;99.90
6174;DHT22;3120;48.796;9.796;2023-02-11T02:35:52;-3.10;99.90
6174;DHT22;3120;48.796;9.796;2023-02-11T02:41:03;-3.10;99.90
6174;DHT22;3120;48.796;9.796;2023-02-11T02:43:30;-3.10;99.90
6174;DHT22;3120;48.796;9.796;2023-02-11T02:46:22;-3.10;99.90
6174;DHT22;3120;48.796;9.796;2023-02-11T02:48:49;-3.10;99.90
6174;DHT22;3120;48.796;9.796;2023-02-11T02:56:40;-3.20;99.90
6174;DHT22;3120;48.796;9.796;2023-02-11T03:02:13;-3.20;99.90
6174;DHT22;3120;48.796;9.796;2023-02-11T03:04:56;-3.20;99.90
6174;DHT22;3120;48.796;9.796;2023-02-11T03:07:36;-3.20;99.90
6174;DHT22;3120;48.796;9.796;2023-02-11T03:10:25;-3.30;99.90
6174;DHT22;3120;48.796;9.796;2023-02-11T03:12:53;-3.20;99.90
6174;DHT22;3120;48.796;9.796;2023-02-11T03:15:20;-3.20;99.90
6174;DHT22;3120;48.796;9.796;2023-02-11T03:17:49;-3.10;99.90
6174;DHT22;3120;48.796;9.796;2023-02-11T03:20:17;-3.10;99.90
6174;DHT22;3120;48.796;9.796;2023-02-11T03:23:02;-3.00;99.90
6174;DHT22;3120;48.796;9.796;2023-02-11T03:25:33;-2.90;99.90
6174;DHT22;3120;48.796;9.796;2023-02-11T03:28:28;-2.90;99.90
6174;DHT22;3120;48.796;9.796;2023-02-11T03:33:47;-2.80;99.90
6174;DHT22;3120;48.796;9.796;2023-02-11T03:36:22;-2.70;99.90
6174;DHT22;3120;48.796;9.796;2023-02-11T03:38:50;-2.70;99.90
6174;DHT22;3120;48.796;9.796;2023-02-11T03:41:20;-2.70;99.90
6174;DHT22;3120;48.796;9.796;2023-02-11T03:43:53;-2.70;99.90
6174;DHT22;3120;48.796;9.796;2023-02-11T03:46:24;-2.60;99.90
6174;DHT22;3120;48.796;9.796;2023-02-11T03:48:55;-2.50;99.90
6174;DHT22;3120;48.796;9.796;2023-02-11T03:51:22;-2.50;99.90
6174;DHT22;3120;48.796;9.796;2023-02-11T03:57:02;-2.50;99.90
6174;DHT22;3120;48.796;9.796;2023-02-11T03:59:28;-2.50;99.90
6174;DHT22;3120;48.796;9.796;2023-02-11T04:01:54;-2.50;99.90
6174;DHT22;3120;48.796;9.796;2023-02-11T04:04:19;-2.50;99.90
6174;DHT22;3120;48.796;9.796;2023-02-11T04:06:45;-2.40;99.90
6174;DHT22;3120;48.796;9.796;2023-02-11T04:09:11;-2.30;99.90
6174;DHT22;3120;48.796;9.796;2023-02-11T04:11:37;-2.40;99.90
6174;DHT22;3120;48.796;9.796;2023-02-11T04:14:03;-2.40;99.90
6174;DHT22;3120;48.796;9.796;2023-02-11T04:16:29;-2.40;99.90
6174;DHT22;3120;48.796;9.796;2023-02-11T04:18:55;-2.20;99.90
6174;DHT22;3120;48.796;9.796;2023-02-11T04:21:21;-2.10;99.90
6174;DHT22;3120;48.796;9.796;2023-02-11T04:23:47;-2.00;99.90
6174;DHT22;3120;48.796;9.796;2023-02-11T04:26:13;-2.20;99.90
6174;DHT22;3120;48.796;9.796;2023-02-11T04:28:38;-2.20;99.90
6174;DHT22;3120;48.796;9.796;2023-02-11T04:31:04;-2.30;99.90
6174;DHT22;3120;48.796;9.796;2023-02-11T04:33:30;-2.20;99.90
6174;DHT22;3120;48.796;9.796;2023-02-11T04:35:55;-2.20;99.90
6174;DHT22;3120;48.796;9.796;2023-02-11T04:38:21;-2.10;99.90
6174;DHT22;3120;48.796;9.796;2023-02-11T04:40:48;-2.00;99.90
6174;DHT22;3120;48.796;9.796;2023-02-11T04:43:14;-2.00;99.90
6174;DHT22;3120;48.796;9.796;2023-02-11T04:45:40;-1.90;99.90
6174;DHT22;3120;48.796;9.796;2023-02-11T04:48:05;-1.90;99.90
6174;DHT22;3120;48.796;9.796;2023-02-11T04:50:31;-1.90;99.90
6174;DHT22;3120;48.796;9.796;2023-02-11T04:52:56;-1.80;99.90
6174;DHT22;3120;48.796;9.796;2023-02-11T04:55:22;-1.80;99.90
6174;DHT22;3120;48.796;9.796;2023-02-11T04:57:48;-1.80;99.90
6174;DHT22;3120;48.796;9.796;2023-02-11T05:00:14;-1.90;99.90
6174;DHT22;3120;48.796;9.796;2023-02-11T05:02:39;-1.70;99.90
6174;DHT22;3120;48.796;9.796;2023-02-11T05:05:05;-1.70;99.90
6174;DHT22;3120;48.796;9.796;2023-02-11T05:07:31;-1.60;99.90
6174;DHT22;3120;48.796;9.796;2023-02-11T05:09:56;-1.60;99.90
6174;DHT22;3120;48.796;9.796;2023-02-11T05:12:22;-1.50;99.90
6174;DHT22;3120;48.796;9.796;2023-02-11T05:14:47;-1.50;99.90
6174;DHT22;3120;48.796;9.796;2023-02-11T05:17:13;-1.50;99.90
6174;DHT22;3120;48.796;9.796;2023-02-11T05:19:40;-0.90;99.90
6174;DHT22;3120;48.796;9.796;2023-02-11T05:22:06;-1.50;99.90
6174;DHT22;3120;48.796;9.796;2023-02-11T05:24:31;-1.50;99.90
6174;DHT22;3120;48.796;9.796;2023-02-11T05:26:57;-1.50;99.90
6174;DHT22;3120;48.796;9.796;2023-02-11T05:29:23;-1.50;99.90
6174;DHT22;3120;48.796;9.796;2023-02-11T05:31:48;-1.50;99.90
6174;DHT22;3120;48.796;9.796;2023-02-11T05:34:14;-1.40;99.90
6174;DHT22;3120;48.796;9.796;2023-02-11T05:36:39;-1.40;99.90
6174;DHT22;3120;48.796;9.796;2023-02-11T05:39:05;-1.30;99.90
6174;DHT22;3120;48.796;9.796;2023-02-11T05:41:31;-1.30;99.90
6174;DHT22;3120;48.796;9.796;2023-02-11T05:46:26;-1.20;99.90
6174;DHT22;3120;48.796;9.796;2023-02-11T05:48:51;-1.10;99.90
6174;DHT22;3120;48.796;9.796;2023-02-11T05:51:17;-1.20;98.40
6174;DHT22;3120;48.796;9.796;2023-02-11T05:53:42;-1.10;99.90
6174;DHT22;3120;48.796;9.796;2023-02-11T05:56:12;-1.10;99.90
6174;DHT22;3120;48.796;9.796;2023-02-11T05:58:39;-1.10;99.90
6174;DHT22;3120;48.796;9.796;2023-02-11T06:01:04;-1.00;99.90
6174;DHT22;3120;48.796;9.796;2023-02-11T06:03:30;-1.00;99.90
6174;DHT22;3120;48.796;9.796;2023-02-11T06:05:56;-0.90;99.90
6174;DHT22;3120;48.796;9.796;2023-02-11T06:08:21;-0.90;99.90
6174;DHT22;3120;48.796;9.796;2023-02-11T06:10:47;-0.90;99.90
6174;DHT22;3120;48.796;9.796;2023-02-11T06:13:12;-0.80;99.90
6174;DHT22;3120;48.796;9.796;2023-02-11T06:15:38;-0.70;99.90
6174;DHT22;3120;48.796;9.796;2023-02-11T06:18:04;-0.80;99.90
6174;DHT22;3120;48.796;9.796;2023-02-11T06:20:29;-0.80;99.90
6174;DHT22;3120;48.796;9.796;2023-02-11T06:22:55;-0.80;99.90
6174;DHT22;3120;48.796;9.796;2023-02-11T06:25:21;-0.80;99.90
6174;DHT22;3120;48.796;9.796;2023-02-11T06:27:46;-0.80;99.90
6174;DHT22;3120;48.796;9.796;2023-02-11T06:30:12;-0.80;99.90
6174;DHT22;3120;48.796;9.796;2023-02-11T06:32:38;-0.70;99.90
6174;DHT22;3120;48.796;9.796;2023-02-11T06:35:03;-0.70;99.90
6174;DHT22;3120;48.796;9.796;2023-02-11T06:37:29;-0.70;99.90
6174;DHT22;3120;48.796;9.796;2023-02-11T06:39:55;-0.70;99.90
6174;DHT22;3120;48.796;9.796;2023-02-11T06:42:20;-0.70;99.90
6174;DHT22;3120;48.796;9.796;2023-02-11T06:44:46;-0.60;99.90
6174;DHT22;3120;48.796;9.796;2023-02-11T06:47:11;-0.60;99.90
6174;DHT22;3120;48.796;9.796;2023-02-11T06:49:37;-0.50;99.90
6174;DHT22;3120;48.796;9.796;2023-02-11T06:52:02;-0.40;99.90
6174;DHT22;3120;48.796;9.796;2023-02-11T06:54:28;-0.50;99.90
6174;DHT22;3120;48.796;9.796;2023-02-11T06:56:54;-0.50;99.90
6174;DHT22;3120;48.796;9.796;2023-02-11T06:59:20;-0.50;99.90
6174;DHT22;3120;48.796;9.796;2023-02-11T07:01:46;-0.40;99.90
6174;DHT22;3120;48.796;9.796;2023-02-11T07:04:12;-0.50;99.90
6174;DHT22;3120;48.796;9.796;2023-02-11T07:06:39;-0.40;99.90
6174;DHT22;3120;48.796;9.796;2023-02-11T07:09:04;-0.40;99.90
6174;DHT22;3120;48.796;9.796;2023-02-11T07:11:30;-0.40;99.90
6174;DHT22;3120;48.796;9.796;2023-02-11T07:14:07;-0.30;99.90
6174;DHT22;3120;48.796;9.796;2023-02-11T07:16:34;-0.30;99.90
6174;DHT22;3120;48.796;9.796;2023-02-11T07:18:59;-0.30;99.90
6174;DHT22;3120;48.796;9.796;2023-02-11T07:21:25;-0.20;99.90
6174;DHT22;3120;48.796;9.796;2023-02-11T07:24:09;-0.10;96.90
6174;DHT22;3120;48.796;9.796;2023-02-11T07:26:57;-0.10;87.20
6174;DHT22;3120;48.796;9.796;2023-02-11T07:29:25;-0.10;92.50
6174;DHT22;3120;48.796;9.796;2023-02-11T07:31:54;-0.10;99.90
6174;DHT22;3120;48.796;9.796;2023-02-11T07:34:27;-0.10;96.90
6174;DHT22;3120;48.796;9.796;2023-02-11T07:36:53;0.00;54.50
6174;DHT22;3120;48.796;9.796;2023-02-11T07:39:18;0.00;57.60
6174;DHT22;3120;48.796;9.796;2023-02-11T07:41:47;-0.10;62.50
6174;DHT22;3120;48.796;9.796;2023-02-11T07:44:13;0.10;81.80
6174;DHT22;3120;48.796;9.796;2023-02-11T07:46:39;0.30;51.20
6174;DHT22;3120;48.796;9.796;2023-02-11T07:49:09;0.30;23.40
6174;DHT22;3120;48.796;9.796;2023-02-11T07:51:37;0.40;8.50
6174;DHT22;3120;48.796;9.796;2023-02-11T07:54:03;0.50;8.40
6174;DHT22;3120;48.796;9.796;2023-02-11T07:56:29;0.70;6.30
6174;DHT22;3120;48.796;9.796;2023-02-11T07:58:59;1.50;1.00
6174;DHT22;3120;48.796;9.796;2023-02-11T08:01:25;0.90;1.00
6174;DHT22;3120;48.796;9.796;2023-02-11T08:03:54;0.90;1.00
6174;DHT22;3120;48.796;9.796;2023-02-11T08:06:22;0.90;1.00
6174;DHT22;3120;48.796;9.796;2023-02-11T08:08:49;1.00;1.00
6174;DHT22;3120;48.796;9.796;2023-02-11T08:11:23;1.00;1.00
6174;DHT22;3120;48.796;9.796;2023-02-11T08:13:49;1.10;1.00
6174;DHT22;3120;48.796;9.796;2023-02-11T08:18:47;1.00;1.00
6174;DHT22;3120;48.796;9.796;2023-02-11T08:21:13;0.90;1.00
6174;DHT22;3120;48.796;9.796;2023-02-11T08:23:40;0.90;1.00
6174;DHT22;3120;48.796;9.796;2023-02-11T08:26:10;2.40;1.00
6174;DHT22;3120;48.796;9.796;2023-02-11T08:28:38;1.20;1.00
6174;DHT22;3120;48.796;9.796;2023-02-11T08:31:28;1.30;1.00
6174;DHT22;3120;48.796;9.796;2023-02-11T08:33:54;1.80;1.00
6174;DHT22;3120;48.796;9.796;2023-02-11T08:36:29;1.50;1.00
6174;DHT22;3120;48.796;9.796;2023-02-11T08:38:56;1.60;1.00
6174;DHT22;3120;48.796;9.796;2023-02-11T08:41:25;1.70;99.90
6174;DHT22;3120;48.796;9.796;2023-02-11T08:43:51;1.80;99.90
6174;DHT22;3120;48.796;9.796;2023-02-11T08:46:18;1.90;1.00
6174;DHT22;3120;48.796;9.796;2023-02-11T08:48:45;2.00;99.90
6174;DHT22;3120;48.796;9.796;2023-02-11T08:51:29;2.10;1.00
6174;DHT22;3120;48.796;9.796;2023-02-11T08:53:56;2.40;1.00
6174;DHT22;3120;48.796;9.796;2023-02-11T08:56:22;2.50;99.90
6174;DHT22;3120;48.796;9.796;2023-02-11T08:58:48;3.30;99.90
6174;DHT22;3120;48.796;9.796;2023-02-11T09:01:23;3.00;99.90
6174;DHT22;3120;48.796;9.796;2023-02-11T09:03:49;3.30;1.00
6174;DHT22;3120;48.796;9.796;2023-02-11T09:06:15;3.40;1.00
6174;DHT22;3120;48.796;9.796;2023-02-11T09:08:44;3.40;99.90
6174;DHT22;3120;48.796;9.796;2023-02-11T09:11:11;3.30;99.90
6174;DHT22;3120;48.796;9.796;2023-02-11T09:13:40;3.20;99.90
6174;DHT22;3120;48.796;9.796;2023-02-11T09:16:06;3.20;1.00
6174;DHT22;3120;48.796;9.796;2023-02-11T09:18:32;3.40;99.90
6174;DHT22;3120;48.796;9.796;2023-02-11T09:21:03;3.60;99.90
6174;DHT22;3120;48.796;9.796;2023-02-11T09:23:28;3.70;99.90
6174;DHT22;3120;48.796;9.796;2023-02-11T09:25:54;3.70;99.90
6174;DHT22;3120;48.796;9.796;2023-02-11T09:28:20;3.80;99.90
6174;DHT22;3120;48.796;9.796;2023-02-11T09:30:46;3.80;1.00
6174;DHT22;3120;48.796;9.796;2023-02-11T09:33:11;4.00;1.00
6174;DHT22;3120;48.796;9.796;2023-02-11T09:35:37;4.20;99.90
6174;DHT22;3120;48.796;9.796;2023-02-11T09:38:02;4.30;1.00
6174;DHT22;3120;48.796;9.796;2023-02-11T09:40:28;4.30;99.90
6174;DHT22;3120;48.796;9.796;2023-02-11T09:43:06;4.40;99.90
6174;DHT22;3120;48.796;9.796;2023-02-11T09:45:35;4.30;99.90
6174;DHT22;3120;48.796;9.796;2023-02-11T09:48:04;4.10;99.90
6174;DHT22;3120;48.796;9.796;2023-02-11T09:51:01;4.10;99.90
6174;DHT22;3120;48.796;9.796;2023-02-11T09:53:31;4.20;99.90
6174;DHT22;3120;48.796;9.796;2023-02-11T09:56:01;4.80;99.90
6174;DHT22;3120;48.796;9.796;2023-02-11T09:58:35;4.50;99.90
6174;DHT22;3120;48.796;9.796;2023-02-11T10:14:52;4.80;99.90
6174;DHT22;3120;48.796;9.796;2023-02-11T10:17:41;4.90;99.90
6174;DHT22;3120;48.796;9.796;2023-02-11T10:23:00;5.20;25.50
6174;DHT22;3120;48.796;9.796;2023-02-11T10:25:40;5.10;88.20
6174;DHT22;3120;48.796;9.796;2023-02-11T10:28:16;5.10;99.90
6174;DHT22;3120;48.796;9.796;2023-02-11T10:31:01;5.10;99.90
6174;DHT22;3120;48.796;9.796;2023-02-11T10:33:33;5.20;99.90
6174;DHT22;3120;48.796;9.796;2023-02-11T10:36:00;6.40;99.90
6174;DHT22;3120;48.796;9.796;2023-02-11T10:38:27;5.50;99.90
6174;DHT22;3120;48.796;9.796;2023-02-11T10:40:53;5.60;92.20
6174;DHT22;3120;48.796;9.796;2023-02-11T10:43:22;5.80;73.10
6174;DHT22;3120;48.796;9.796;2023-02-11T10:45:54;5.90;1.80
6174;DHT22;3120;48.796;9.796;2023-02-11T10:51:24;6.00;21.80
6174;DHT22;3120;48.796;9.796;2023-02-11T10:56:46;7.80;28.20
6174;DHT22;3120;48.796;9.796;2023-02-11T11:01:59;6.50;1.00
6174;DHT22;3120;48.796;9.796;2023-02-11T11:06:55;6.70;1.00
6174;DHT22;3120;48.796;9.796;2023-02-11T11:09:29;6.80;1.00
6174;DHT22;3120;48.796;9.796;2023-02-11T11:11:55;7.50;1.00
6174;DHT22;3120;48.796;9.796;2023-02-11T11:14:22;6.80;1.00
6174;DHT22;3120;48.796;9.796;2023-02-11T11:16:53;6.90;1.00
6174;DHT22;3120;48.796;9.796;2023-02-11T11:19:22;6.90;1.00
6174;DHT22;3120;48.796;9.796;2023-02-11T11:21:51;7.60;1.00
6174;DHT22;3120;48.796;9.796;2023-02-11T11:24:59;7.10;4.50
6174;DHT22;3120;48.796;9.796;2023-02-11T11:27:23;7.30;99.90
6174;DHT22;3120;48.796;9.796;2023-02-11T11:29:52;7.10;99.90
6174;DHT22;3120;48.796;9.796;2023-02-11T11:32:24;6.70;99.90
6174;DHT22;3120;48.796;9.796;2023-02-11T11:34:53;8.20;99.90
6174;DHT22;3120;48.796;9.796;2023-02-11T11:37:36;7.10;99.90
6174;DHT22;3120;48.796;9.796;2023-02-11T11:40:25;7.00;99.90
6174;DHT22;3120;48.796;9.796;2023-02-11T11:43:04;7.20;99.90
6174;DHT22;3120;48.796;9.796;2023-02-11T11:45:31;7.20;99.90
6174;DHT22;3120;48.796;9.796;2023-02-11T11:48:08;7.30;99.90
6174;DHT22;3120;48.796;9.796;2023-02-11T11:51:10;7.40;57.60
6174;DHT22;3120;48.796;9.796;2023-02-11T11:53:50;7.40;31.40
6174;DHT22;3120;48.796;9.796;2023-02-11T11:56:21;7.50;28.60
6174;DHT22;3120;48.796;9.796;2023-02-11T11:58:48;8.20;23.10
6174;DHT22;3120;48.796;9.796;2023-02-11T12:12:53;7.60;27.30
6174;DHT22;3120;48.796;9.796;2023-02-11T12:15:40;7.70;56.50
6174;DHT22;3120;48.796;9.796;2023-02-11T12:27:03;8.40;1.00
6174;DHT22;3120;48.796;9.796;2023-02-11T12:38:02;8.70;1.00
6174;DHT22;3120;48.796;9.796;2023-02-11T12:43:36;8.60;1.00
6174;DHT22;3120;48.796;9.796;2023-02-11T12:57:25;8.70;1.00
6174;DHT22;3120;48.796;9.796;2023-02-11T13:05:44;8.60;1.00
6174;DHT22;3120;48.796;9.796;2023-02-11T13:08:36;8.60;1.00
6174;DHT22;3120;48.796;9.796;2023-02-11T13:11:19;8.80;1.00
6174;DHT22;3120;48.796;9.796;2023-02-11T13:16:43;8.70;1.00
6174;DHT22;3120;48.796;9.796;2023-02-11T13:19:37;8.60;1.00
6174;DHT22;3120;48.796;9.796;2023-02-11T13:22:16;8.50;1.00
6174;DHT22;3120;48.796;9.796;2023-02-11T13:30:33;8.20;1.00
6174;DHT22;3120;48.796;9.796;2023-02-11T13:33:05;8.30;1.00
6174;DHT22;3120;48.796;9.796;2023-02-11T13:38:27;8.20;1.00
6174;DHT22;3120;48.796;9.796;2023-02-11T13:41:02;8.20;1.00
6174;DHT22;3120;48.796;9.796;2023-02-11T13:43:41;8.50;1.00
6174;DHT22;3120;48.796;9.796;2023-02-11T13:46:10;8.80;1.00
6174;DHT22;3120;48.796;9.796;2023-02-11T13:48:48;8.90;1.00
6174;DHT22;3120;48.796;9.796;2023-02-11T13:51:39;9.00;1.00
6174;DHT22;3120;48.796;9.796;2023-02-11T13:54:37;10.20;1.00
6174;DHT22;3120;48.796;9.796;2023-02-11T13:57:29;8.60;1.00
6174;DHT22;3120;48.796;9.796;2023-02-11T14:02:36;8.60;1.00
6174;DHT22;3120;48.796;9.796;2023-02-11T14:05:23;10.00;1.00
6174;DHT22;3120;48.796;9.796;2023-02-11T14:10:56;8.70;1.00
6174;DHT22;3120;48.796;9.796;2023-02-11T14:18:58;8.50;1.00
6174;DHT22;3120;48.796;9.796;2023-02-11T14:21:33;10.00;1.00
6174;DHT22;3120;48.796;9.796;2023-02-11T14:29:40;8.40;1.00
6174;DHT22;3120;48.796;9.796;2023-02-11T14:38:45;8.50;50.30
6174;DHT22;3120;48.796;9.796;2023-02-11T14:41:25;8.50;99.90
6174;DHT22;3120;48.796;9.796;2023-02-11T14:43:56;8.50;95.30
6174;DHT22;3120;48.796;9.796;2023-02-11T14:46:26;8.50;99.90
6174;DHT22;3120;48.796;9.796;2023-02-11T14:48:59;10.00;99.90
6174;DHT22;3120;48.796;9.796;2023-02-11T14:51:29;9.50;99.90
6174;DHT22;3120;48.796;9.796;2023-02-11T14:54:11;9.40;99.90
6174;DHT22;3120;48.796;9.796;2023-02-11T14:56:37;8.40;99.90
6174;DHT22;3120;48.796;9.796;2023-02-11T14:59:18;10.10;99.90
6174;DHT22;3120;48.796;9.796;2023-02-11T15:01:49;8.40;99.90
6174;DHT22;3120;48.796;9.796;2023-02-11T15:04:32;8.30;99.90
6174;DHT22;3120;48.796;9.796;2023-02-11T15:07:06;8.30;1.00
6174;DHT22;3120;48.796;9.796;2023-02-11T15:09:48;8.20;1.00
6174;DHT22;3120;48.796;9.796;2023-02-11T15:12:22;8.20;1.00
6174;DHT22;3120;48.796;9.796;2023-02-11T15:14:59;8.10;1.00
6174;DHT22;3120;48.796;9.796;2023-02-11T15:17:28;8.90;1.00
6174;DHT22;3120;48.796;9.796;2023-02-11T15:19:58;8.30;1.00
6174;DHT22;3120;48.796;9.796;2023-02-11T15:22:29;8.10;30.80
6174;DHT22;3120;48.796;9.796;2023-02-11T15:25:17;8.10;1.00
6174;DHT22;3120;48.796;9.796;2023-02-11T15:27:57;8.00;99.90
6174;DHT22;3120;48.796;9.796;2023-02-11T15:30:27;8.00;99.90
6174;DHT22;3120;48.796;9.796;2023-02-11T15:32:59;7.90;99.90
6174;DHT22;3120;48.796;9.796;2023-02-11T15:35:38;8.80;99.90
6174;DHT22;3120;48.796;9.796;2023-02-11T15:38:06;7.90;99.90
6174;DHT22;3120;48.796;9.796;2023-02-11T15:40:35;8.80;99.90
6174;DHT22;3120;48.796;9.796;2023-02-11T15:43:09;7.60;1.00
6174;DHT22;3120;48.796;9.796;2023-02-11T15:48:34;7.50;78.20
6174;DHT22;3120;48.796;9.796;2023-02-11T15:51:16;7.40;1.00
6174;DHT22;3120;48.796;9.796;2023-02-11T15:53:49;7.50;99.90
6174;DHT22;3120;48.796;9.796;2023-02-11T15:56:27;7.40;1.00
6174;DHT22;3120;48.796;9.796;2023-02-11T15:59:15;7.40;1.00
6174;DHT22;3120;48.796;9.796;2023-02-11T16:01:43;7.60;1.00
6174;DHT22;3120;48.796;9.796;2023-02-11T16:04:23;7.50;1.00
6174;DHT22;3120;48.796;9.796;2023-02-11T16:06:49;7.50;1.00
6174;DHT22;3120;48.796;9.796;2023-02-11T16:17:05;7.40;1.00
6174;DHT22;3120;48.796;9.796;2023-02-11T16:19:33;7.30;1.00
6174;DHT22;3120;48.796;9.796;2023-02-11T16:22:04;7.40;48.40
6174;DHT22;3120;48.796;9.796;2023-02-11T16:27:41;7.30;1.00
6174;DHT22;3120;48.796;9.796;2023-02-11T16:30:38;7.30;1.00
6174;DHT22;3120;48.796;9.796;2023-02-11T16:33:04;8.30;99.90
6174;DHT22;3120;48.796;9.796;2023-02-11T16:35:30;8.20;99.90
6174;DHT22;3120;48.796;9.796;2023-02-11T16:37:59;7.00;1.00
6174;DHT22;3120;48.796;9.796;2023-02-11T16:40:30;7.10;1.00
6174;DHT22;3120;48.796;9.796;2023-02-11T16:42:56;8.40;1.00
6174;DHT22;3120;48.796;9.796;2023-02-11T16:45:27;7.80;99.90
6174;DHT22;3120;48.796;9.796;2023-02-11T16:47:52;8.30;8.50
6174;DHT22;3120;48.796;9.796;2023-02-11T16:50:21;8.00;1.00
6174;DHT22;3120;48.796;9.796;2023-02-11T16:53:18;6.90;1.00
6174;DHT22;3120;48.796;9.796;2023-02-11T16:55:48;7.70;1.00
6174;DHT22;3120;48.796;9.796;2023-02-11T16:58:14;6.90;1.00
6174;DHT22;3120;48.796;9.796;2023-02-11T17:00:44;7.00;1.00
6174;DHT22;3120;48.796;9.796;2023-02-11T17:03:23;7.90;1.00
6174;DHT22;3120;48.796;9.796;2023-02-11T17:05:50;5.90;99.90
6174;DHT22;3120;48.796;9.796;2023-02-11T17:08:26;7.80;99.90
6174;DHT22;3120;48.796;9.796;2023-02-11T17:10:51;6.90;99.90
6174;DHT22;3120;48.796;9.796;2023-02-11T17:13:17;7.50;99.90
6174;DHT22;3120;48.796;9.796;2023-02-11T17:15:42;6.70;1.00
6174;DHT22;3120;48.796;9.796;2023-02-11T17:18:11;6.70;72.70
6174;DHT22;3120;48.796;9.796;2023-02-11T17:20:37;6.60;99.90
6174;DHT22;3120;48.796;9.796;2023-02-11T17:23:03;6.70;99.90
6174;DHT22;3120;48.796;9.796;2023-02-11T17:25:28;6.70;99.90
6174;DHT22;3120;48.796;9.796;2023-02-11T17:27:54;6.70;99.90
6174;DHT22;3120;48.796;9.796;2023-02-11T17:30:20;6.60;1.00
6174;DHT22;3120;48.796;9.796;2023-02-11T17:32:47;6.60;1.00
6174;DHT22;3120;48.796;9.796;2023-02-11T17:35:13;6.60;1.00
6174;DHT22;3120;48.796;9.796;2023-02-11T17:37:39;6.60;99.90
6174;DHT22;3120;48.796;9.796;2023-02-11T17:40:06;6.60;99.90
6174;DHT22;3120;48.796;9.796;2023-02-11T17:42:32;6.50;99.90
6174;DHT22;3120;48.796;9.796;2023-02-11T17:44:57;6.50;1.00
6174;DHT22;3120;48.796;9.796;2023-02-11T17:47:23;6.50;99.90
6174;DHT22;3120;48.796;9.796;2023-02-11T17:49:49;6.50;1.00
6174;DHT22;3120;48.796;9.796;2023-02-11T17:52:15;6.40;99.90
6174;DHT22;3120;48.796;9.796;2023-02-11T17:54:42;6.40;1.00
6174;DHT22;3120;48.796;9.796;2023-02-11T17:57:09;6.40;1.00
6174;DHT22;3120;48.796;9.796;2023-02-11T17:59:38;6.30;99.90
6174;DHT22;3120;48.796;9.796;2023-02-11T18:02:04;5.50;1.00
6174;DHT22;3120;48.796;9.796;2023-02-11T18:04:31;6.20;99.90
6174;DHT22;3120;48.796;9.796;2023-02-11T18:06:57;7.30;1.00
6174;DHT22;3120;48.796;9.796;2023-02-11T18:09:25;6.20;99.90
6174;DHT22;3120;48.796;9.796;2023-02-11T18:11:52;6.00;99.90
6174;DHT22;3120;48.796;9.796;2023-02-11T18:14:20;7.50;1.00
6174;DHT22;3120;48.796;9.796;2023-02-11T18:16:51;6.10;99.90
6174;DHT22;3120;48.796;9.796;2023-02-11T18:19:17;6.00;99.90
6174;DHT22;3120;48.796;9.796;2023-02-11T18:21:43;6.00;99.90
6174;DHT22;3120;48.796;9.796;2023-02-11T18:24:10;6.00;99.90
6174;DHT22;3120;48.796;9.796;2023-02-11T18:26:36;5.90;99.90
6174;DHT22;3120;48.796;9.796;2023-02-11T18:29:02;6.00;99.90
6174;DHT22;3120;48.796;9.796;2023-02-11T18:31:29;5.90;99.90
6174;DHT22;3120;48.796;9.796;2023-02-11T18:33:55;5.80;99.90
6174;DHT22;3120;48.796;9.796;2023-02-11T18:36:21;5.80;99.90
6174;DHT22;3120;48.796;9.796;2023-02-11T18:38:47;5.80;1.00
6174;DHT22;3120;48.796;9.796;2023-02-11T18:41:13;6.80;1.00
6174;DHT22;3120;48.796;9.796;2023-02-11T18:43:39;5.70;1.00
6174;DHT22;3120;48.796;9.796;2023-02-11T18:46:10;5.60;1.00
6174;DHT22;3120;48.796;9.796;2023-02-11T18:48:37;5.70;1.00
6174;DHT22;3120;48.796;9.796;2023-02-11T18:51:08;6.30;1.00
6174;DHT22;3120;48.796;9.796;2023-02-11T18:53:34;5.70;1.00
6174;DHT22;3120;48.796;9.796;2023-02-11T18:56:08;6.20;1.00
6174;DHT22;3120;48.796;9.796;2023-02-11T18:58:35;6.30;1.00
6174;DHT22;3120;48.796;9.796;2023-02-11T19:03:37;5.50;1.00
6174;DHT22;3120;48.796;9.796;2023-02-11T19:06:02;5.40;1.00
6174;DHT22;3120;48.796;9.796;2023-02-11T19:08:28;5.40;1.00
6174;DHT22;3120;48.796;9.796;2023-02-11T19:10:54;7.10;1.00
6174;DHT22;3120;48.796;9.796;2023-02-11T19:13:19;5.40;1.00
6174;DHT22;3120;48.796;9.796;2023-02-11T19:15:46;5.40;1.00
6174;DHT22;3120;48.796;9.796;2023-02-11T19:18:13;5.30;1.00
6174;DHT22;3120;48.796;9.796;2023-02-11T19:20:40;6.20;1.00
6174;DHT22;3120;48.796;9.796;2023-02-11T19:23:06;5.20;1.00